sensor_id;sensor_type;location;lat;lon;timestamp;P1;durP1;ratioP1;P2;durP2;ratioP2
78960;SDS011;68362;45.970;12.646;2023-05-10T00:01:01;2.53;;;1.50;;
78960;SDS011;68362;45.970;12.646;2023-05-10T00:02:03;2.30;;;1.25;;
78960;SDS011;68362;45.970;12.646;2023-05-10T00:03:05;2.72;;;1.38;;
78960;SDS011;68362;45.970;12.646;2023-05-10T00:04:07;2.60;;;1.60;;
78960;SDS011;68362;45.970;12.646;2023-05-10T00:05:09;1.98;;;1.45;;
78960;SDS011;68362;45.970;12.646;2023-05-10T00:06:11;2.10;;;1.60;;
78960;SDS011;68362;45.970;12.646;2023-05-10T00:07:13;2.47;;;1.63;;
78960;SDS011;68362;45.970;12.646;2023-05-10T00:08:15;1.85;;;1.20;;
78960;SDS011;68362;45.970;12.646;2023-05-10T00:09:18;3.63;;;1.48;;
78960;SDS011;68362;45.970;12.646;2023-05-10T00:10:20;4.07;;;1.67;;
78960;SDS011;68362;45.970;12.646;2023-05-10T00:11:22;1.70;;;1.33;;
78960;SDS011;68362;45.970;12.646;2023-05-10T00:12:24;2.35;;;1.65;;
78960;SDS011;68362;45.970;12.646;2023-05-10T00:13:26;2.83;;;1.42;;
78960;SDS011;68362;45.970;12.646;2023-05-10T00:14:28;2.00;;;1.30;;
78960;SDS011;68362;45.970;12.646;2023-05-10T00:15:30;4.72;;;1.70;;
78960;SDS011;68362;45.970;12.646;2023-05-10T00:16:32;1.80;;;1.30;;
78960;SDS011;68362;45.970;12.646;2023-05-10T00:17:35;5.70;;;1.80;;
78960;SDS011;68362;45.970;12.646;2023-05-10T00:18:37;1.85;;;1.30;;
78960;SDS011;68362;45.970;12.646;2023-05-10T00:19:39;2.83;;;1.45;;
78960;SDS011;68362;45.970;12.646;2023-05-10T00:20:41;2.95;;;1.33;;
78960;SDS011;68362;45.970;12.646;2023-05-10T00:21:43;2.70;;;1.77;;
78960;SDS011;68362;45.970;12.646;2023-05-10T00:22:45;1.75;;;1.20;;
78960;SDS011;68362;45.970;12.646;2023-05-10T00:23:47;2.75;;;1.30;;
78960;SDS011;68362;45.970;12.646;2023-05-10T00:24:49;1.60;;;1.40;;
78960;SDS011;68362;45.970;12.646;2023-05-10T00:25:51;2.03;;;1.50;;
78960;SDS011;68362;45.970;12.646;2023-05-10T00:26:53;2.17;;;1.50;;
78960;SDS011;68362;45.970;12.646;2023-05-10T00:27:55;2.17;;;1.52;;
78960;SDS011;68362;45.970;12.646;2023-05-10T00:28:58;2.10;;;1.60;;
78960;SDS011;68362;45.970;12.646;2023-05-10T00:30:01;1.95;;;1.40;;
78960;SDS011;68362;45.970;12.646;2023-05-10T00:31:03;1.73;;;1.30;;
78960;SDS011;68362;45.970;12.646;2023-05-10T00:32:05;2.38;;;1.45;;
78960;SDS011;68362;45.970;12.646;2023-05-10T00:33:07;1.85;;;1.23;;
78960;SDS011;68362;45.970;12.646;2023-05-10T00:34:10;2.45;;;1.83;;
78960;SDS011;68362;45.970;12.646;2023-05-10T00:35:12;3.30;;;1.50;;
78960;SDS011;68362;45.970;12.646;2023-05-10T00:36:14;4.20;;;1.40;;
78960;SDS011;68362;45.970;12.646;2023-05-10T00:37:16;2.67;;;1.55;;
78960;SDS011;68362;45.970;12.646;2023-05-10T00:38:18;1.85;;;1.25;;
78960;SDS011;68362;45.970;12.646;2023-05-10T00:39:21;3.13;;;1.40;;
78960;SDS011;68362;45.970;12.646;2023-05-10T00:40:22;2.47;;;1.52;;
78960;SDS011;68362;45.970;12.646;2023-05-10T00:41:24;2.10;;;1.30;;
78960;SDS011;68362;45.970;12.646;2023-05-10T00:42:27;2.35;;;1.42;;
78960;SDS011;68362;45.970;12.646;2023-05-10T00:43:29;2.97;;;1.80;;
78960;SDS011;68362;45.970;12.646;2023-05-10T00:44:31;2.28;;;1.40;;
78960;SDS011;68362;45.970;12.646;2023-05-10T00:45:33;4.65;;;1.55;;
78960;SDS011;68362;45.970;12.646;2023-05-10T00:46:38;2.88;;;1.85;;
78960;SDS011;68362;45.970;12.646;2023-05-10T00:47:40;2.78;;;1.52;;
78960;SDS011;68362;45.970;12.646;2023-05-10T00:48:43;2.28;;;1.35;;
78960;SDS011;68362;45.970;12.646;2023-05-10T00:49:45;2.50;;;1.20;;
78960;SDS011;68362;45.970;12.646;2023-05-10T00:50:48;2.65;;;1.60;;
78960;SDS011;68362;45.970;12.646;2023-05-10T00:51:50;3.60;;;1.50;;
78960;SDS011;68362;45.970;12.646;2023-05-10T00:52:52;1.95;;;1.35;;
78960;SDS011;68362;45.970;12.646;2023-05-10T00:53:54;1.88;;;1.20;;
78960;SDS011;68362;45.970;12.646;2023-05-10T00:54:57;3.33;;;1.50;;
78960;SDS011;68362;45.970;12.646;2023-05-10T00:56:00;2.50;;;1.15;;
78960;SDS011;68362;45.970;12.646;2023-05-10T00:58:05;1.90;;;1.23;;
78960;SDS011;68362;45.970;12.646;2023-05-10T00:59:10;1.95;;;1.08;;
78960;SDS011;68362;45.970;12.646;2023-05-10T01:00:12;3.15;;;1.60;;
78960;SDS011;68362;45.970;12.646;2023-05-10T01:01:19;4.30;;;1.23;;
78960;SDS011;68362;45.970;12.646;2023-05-10T01:02:22;1.92;;;1.10;;
78960;SDS011;68362;45.970;12.646;2023-05-10T01:03:24;1.85;;;1.48;;
78960;SDS011;68362;45.970;12.646;2023-05-10T01:04:27;1.80;;;1.10;;
78960;SDS011;68362;45.970;12.646;2023-05-10T01:05:29;4.13;;;1.50;;
78960;SDS011;68362;45.970;12.646;2023-05-10T01:06:31;1.70;;;1.10;;
78960;SDS011;68362;45.970;12.646;2023-05-10T01:07:33;1.75;;;1.30;;
78960;SDS011;68362;45.970;12.646;2023-05-10T01:08:36;2.40;;;1.33;;
78960;SDS011;68362;45.970;12.646;2023-05-10T01:09:38;2.10;;;1.33;;
78960;SDS011;68362;45.970;12.646;2023-05-10T01:10:40;1.83;;;1.15;;
78960;SDS011;68362;45.970;12.646;2023-05-10T01:11:43;1.60;;;1.40;;
78960;SDS011;68362;45.970;12.646;2023-05-10T01:12:46;6.63;;;1.83;;
78960;SDS011;68362;45.970;12.646;2023-05-10T01:13:52;1.52;;;1.33;;
78960;SDS011;68362;45.970;12.646;2023-05-10T01:14:58;1.80;;;1.42;;
78960;SDS011;68362;45.970;12.646;2023-05-10T01:16:01;4.07;;;1.67;;
78960;SDS011;68362;45.970;12.646;2023-05-10T01:17:05;1.55;;;1.08;;
78960;SDS011;68362;45.970;12.646;2023-05-10T01:18:08;1.80;;;1.35;;
78960;SDS011;68362;45.970;12.646;2023-05-10T01:19:12;2.15;;;1.10;;
78960;SDS011;68362;45.970;12.646;2023-05-10T01:20:26;2.00;;;1.02;;
78960;SDS011;68362;45.970;12.646;2023-05-10T01:21:48;2.30;;;1.50;;
78960;SDS011;68362;45.970;12.646;2023-05-10T01:23:00;2.10;;;1.40;;
78960;SDS011;68362;45.970;12.646;2023-05-10T01:26:06;2.13;;;1.30;;
78960;SDS011;68362;45.970;12.646;2023-05-10T01:27:24;2.53;;;1.58;;
78960;SDS011;68362;45.970;12.646;2023-05-10T01:33:56;1.98;;;1.48;;
78960;SDS011;68362;45.970;12.646;2023-05-10T01:35:09;4.10;;;1.30;;
78960;SDS011;68362;45.970;12.646;2023-05-10T01:36:19;1.85;;;1.17;;
78960;SDS011;68362;45.970;12.646;2023-05-10T01:38:43;1.90;;;1.33;;
78960;SDS011;68362;45.970;12.646;2023-05-10T01:41:54;2.47;;;1.23;;
78960;SDS011;68362;45.970;12.646;2023-05-10T01:43:01;1.73;;;1.20;;
78960;SDS011;68362;45.970;12.646;2023-05-10T01:44:16;2.35;;;1.15;;
78960;SDS011;68362;45.970;12.646;2023-05-10T01:46:36;3.25;;;1.45;;
78960;SDS011;68362;45.970;12.646;2023-05-10T01:47:43;1.73;;;1.45;;
78960;SDS011;68362;45.970;12.646;2023-05-10T01:48:51;2.13;;;1.23;;
78960;SDS011;68362;45.970;12.646;2023-05-10T01:49:55;2.20;;;1.33;;
78960;SDS011;68362;45.970;12.646;2023-05-10T01:50:59;2.13;;;1.33;;
78960;SDS011;68362;45.970;12.646;2023-05-10T01:52:12;2.28;;;1.73;;
78960;SDS011;68362;45.970;12.646;2023-05-10T01:53:17;2.42;;;1.30;;
78960;SDS011;68362;45.970;12.646;2023-05-10T01:54:21;3.25;;;1.40;;
78960;SDS011;68362;45.970;12.646;2023-05-10T01:55:26;1.63;;;1.05;;
78960;SDS011;68362;45.970;12.646;2023-05-10T01:56:32;1.73;;;1.30;;
78960;SDS011;68362;45.970;12.646;2023-05-10T01:57:36;1.92;;;1.38;;
78960;SDS011;68362;45.970;12.646;2023-05-10T01:58:41;3.78;;;1.30;;
78960;SDS011;68362;45.970;12.646;2023-05-10T01:59:47;2.25;;;1.30;;
78960;SDS011;68362;45.970;12.646;2023-05-10T02:00:52;1.52;;;1.10;;
78960;SDS011;68362;45.970;12.646;2023-05-10T02:01:56;1.88;;;1.23;;
78960;SDS011;68362;45.970;12.646;2023-05-10T02:03:00;2.40;;;1.35;;
78960;SDS011;68362;45.970;12.646;2023-05-10T02:04:10;2.30;;;1.50;;
78960;SDS011;68362;45.970;12.646;2023-05-10T02:05:14;2.47;;;1.63;;
78960;SDS011;68362;45.970;12.646;2023-05-10T02:06:18;2.72;;;1.35;;
78960;SDS011;68362;45.970;12.646;2023-05-10T02:07:22;2.53;;;1.30;;
78960;SDS011;68362;45.970;12.646;2023-05-10T02:08:25;2.80;;;1.27;;
78960;SDS011;68362;45.970;12.646;2023-05-10T02:09:27;1.67;;;1.23;;
78960;SDS011;68362;45.970;12.646;2023-05-10T02:10:35;1.67;;;1.40;;
78960;SDS011;68362;45.970;12.646;2023-05-10T02:11:38;3.78;;;1.27;;
78960;SDS011;68362;45.970;12.646;2023-05-10T02:12:42;2.30;;;1.20;;
78960;SDS011;68362;45.970;12.646;2023-05-10T02:13:45;2.28;;;1.50;;
78960;SDS011;68362;45.970;12.646;2023-05-10T02:14:50;2.58;;;1.42;;
78960;SDS011;68362;45.970;12.646;2023-05-10T02:15:54;3.50;;;1.40;;
78960;SDS011;68362;45.970;12.646;2023-05-10T02:16:58;3.75;;;1.70;;
78960;SDS011;68362;45.970;12.646;2023-05-10T02:18:01;2.30;;;1.67;;
78960;SDS011;68362;45.970;12.646;2023-05-10T02:19:05;3.75;;;1.50;;
78960;SDS011;68362;45.970;12.646;2023-05-10T02:20:10;2.88;;;1.83;;
78960;SDS011;68362;45.970;12.646;2023-05-10T02:21:14;3.05;;;1.90;;
78960;SDS011;68362;45.970;12.646;2023-05-10T02:22:17;2.05;;;1.55;;
78960;SDS011;68362;45.970;12.646;2023-05-10T02:23:20;1.85;;;1.38;;
78960;SDS011;68362;45.970;12.646;2023-05-10T02:24:23;2.92;;;1.50;;
78960;SDS011;68362;45.970;12.646;2023-05-10T02:25:26;2.22;;;1.67;;
78960;SDS011;68362;45.970;12.646;2023-05-10T02:26:30;1.80;;;1.30;;
78960;SDS011;68362;45.970;12.646;2023-05-10T02:27:35;3.88;;;1.45;;
78960;SDS011;68362;45.970;12.646;2023-05-10T02:28:38;2.05;;;1.70;;
78960;SDS011;68362;45.970;12.646;2023-05-10T02:29:42;4.90;;;1.83;;
78960;SDS011;68362;45.970;12.646;2023-05-10T02:30:46;2.17;;;1.52;;
78960;SDS011;68362;45.970;12.646;2023-05-10T02:31:50;2.63;;;1.58;;
78960;SDS011;68362;45.970;12.646;2023-05-10T02:32:55;2.28;;;1.70;;
78960;SDS011;68362;45.970;12.646;2023-05-10T02:35:04;4.75;;;1.80;;
78960;SDS011;68362;45.970;12.646;2023-05-10T02:36:07;5.45;;;1.92;;
78960;SDS011;68362;45.970;12.646;2023-05-10T02:37:14;2.85;;;1.77;;
78960;SDS011;68362;45.970;12.646;2023-05-10T02:38:18;2.08;;;1.50;;
78960;SDS011;68362;45.970;12.646;2023-05-10T02:39:23;4.28;;;2.25;;
78960;SDS011;68362;45.970;12.646;2023-05-10T02:40:26;4.22;;;1.60;;
78960;SDS011;68362;45.970;12.646;2023-05-10T02:41:30;3.97;;;1.80;;
78960;SDS011;68362;45.970;12.646;2023-05-10T02:42:35;4.50;;;1.88;;
78960;SDS011;68362;45.970;12.646;2023-05-10T02:43:39;2.92;;;1.83;;
78960;SDS011;68362;45.970;12.646;2023-05-10T02:44:43;3.80;;;2.25;;
78960;SDS011;68362;45.970;12.646;2023-05-10T02:45:49;3.33;;;1.50;;
78960;SDS011;68362;45.970;12.646;2023-05-10T02:46:51;3.30;;;1.83;;
78960;SDS011;68362;45.970;12.646;2023-05-10T02:47:53;2.58;;;2.03;;
78960;SDS011;68362;45.970;12.646;2023-05-10T02:49:58;7.57;;;2.50;;
78960;SDS011;68362;45.970;12.646;2023-05-10T02:51:00;4.00;;;2.40;;
78960;SDS011;68362;45.970;12.646;2023-05-10T02:52:07;3.63;;;2.35;;
78960;SDS011;68362;45.970;12.646;2023-05-10T02:53:11;3.33;;;1.95;;
78960;SDS011;68362;45.970;12.646;2023-05-10T02:54:23;2.65;;;1.90;;
78960;SDS011;68362;45.970;12.646;2023-05-10T02:55:31;4.88;;;1.90;;
78960;SDS011;68362;45.970;12.646;2023-05-10T02:56:37;2.83;;;1.80;;
78960;SDS011;68362;45.970;12.646;2023-05-10T02:57:51;3.10;;;1.83;;
78960;SDS011;68362;45.970;12.646;2023-05-10T02:58:56;2.00;;;1.80;;
78960;SDS011;68362;45.970;12.646;2023-05-10T02:59:58;2.63;;;2.10;;
78960;SDS011;68362;45.970;12.646;2023-05-10T03:01:01;2.55;;;2.00;;
78960;SDS011;68362;45.970;12.646;2023-05-10T03:02:04;3.92;;;2.35;;
78960;SDS011;68362;45.970;12.646;2023-05-10T03:03:06;3.58;;;1.95;;
78960;SDS011;68362;45.970;12.646;2023-05-10T03:04:09;3.15;;;1.90;;
78960;SDS011;68362;45.970;12.646;2023-05-10T03:05:11;3.15;;;2.40;;
78960;SDS011;68362;45.970;12.646;2023-05-10T03:06:13;3.35;;;1.95;;
78960;SDS011;68362;45.970;12.646;2023-05-10T03:07:16;3.95;;;1.88;;
78960;SDS011;68362;45.970;12.646;2023-05-10T03:08:20;3.65;;;2.25;;
78960;SDS011;68362;45.970;12.646;2023-05-10T03:09:23;3.72;;;2.30;;
78960;SDS011;68362;45.970;12.646;2023-05-10T03:10:27;4.25;;;2.35;;
78960;SDS011;68362;45.970;12.646;2023-05-10T03:14:21;2.83;;;2.10;;
78960;SDS011;68362;45.970;12.646;2023-05-10T03:16:50;3.97;;;2.30;;
78960;SDS011;68362;45.970;12.646;2023-05-10T03:19:07;3.85;;;2.35;;
78960;SDS011;68362;45.970;12.646;2023-05-10T03:20:20;2.85;;;1.92;;
78960;SDS011;68362;45.970;12.646;2023-05-10T03:21:28;2.80;;;1.85;;
78960;SDS011;68362;45.970;12.646;2023-05-10T03:22:36;5.25;;;2.67;;
78960;SDS011;68362;45.970;12.646;2023-05-10T03:23:41;2.58;;;2.08;;
78960;SDS011;68362;45.970;12.646;2023-05-10T03:24:46;3.00;;;1.63;;
78960;SDS011;68362;45.970;12.646;2023-05-10T03:25:50;3.03;;;2.10;;
78960;SDS011;68362;45.970;12.646;2023-05-10T03:26:54;3.65;;;2.17;;
78960;SDS011;68362;45.970;12.646;2023-05-10T03:27:58;3.97;;;2.38;;
78960;SDS011;68362;45.970;12.646;2023-05-10T03:29:04;2.88;;;1.73;;
78960;SDS011;68362;45.970;12.646;2023-05-10T03:30:08;3.78;;;2.08;;
78960;SDS011;68362;45.970;12.646;2023-05-10T03:31:12;3.10;;;2.00;;
78960;SDS011;68362;45.970;12.646;2023-05-10T03:32:14;4.35;;;2.17;;
78960;SDS011;68362;45.970;12.646;2023-05-10T03:33:16;5.85;;;2.10;;
78960;SDS011;68362;45.970;12.646;2023-05-10T03:34:23;2.85;;;2.17;;
78960;SDS011;68362;45.970;12.646;2023-05-10T03:35:25;3.53;;;2.15;;
78960;SDS011;68362;45.970;12.646;2023-05-10T03:36:27;2.83;;;2.10;;
78960;SDS011;68362;45.970;12.646;2023-05-10T03:37:30;2.40;;;2.05;;
78960;SDS011;68362;45.970;12.646;2023-05-10T03:38:31;2.92;;;2.33;;
78960;SDS011;68362;45.970;12.646;2023-05-10T03:39:33;3.85;;;2.03;;
78960;SDS011;68362;45.970;12.646;2023-05-10T03:40:35;5.05;;;2.10;;
78960;SDS011;68362;45.970;12.646;2023-05-10T03:41:38;2.50;;;2.10;;
78960;SDS011;68362;45.970;12.646;2023-05-10T03:42:40;3.88;;;1.90;;
78960;SDS011;68362;45.970;12.646;2023-05-10T03:43:42;6.22;;;2.08;;
78960;SDS011;68362;45.970;12.646;2023-05-10T03:44:44;1.95;;;1.70;;
78960;SDS011;68362;45.970;12.646;2023-05-10T03:45:46;3.58;;;2.70;;
78960;SDS011;68362;45.970;12.646;2023-05-10T03:46:48;5.20;;;2.08;;
78960;SDS011;68362;45.970;12.646;2023-05-10T03:47:50;3.88;;;2.28;;
78960;SDS011;68362;45.970;12.646;2023-05-10T03:48:52;2.63;;;2.15;;
78960;SDS011;68362;45.970;12.646;2023-05-10T03:49:54;3.90;;;2.08;;
78960;SDS011;68362;45.970;12.646;2023-05-10T03:50:57;3.28;;;2.00;;
78960;SDS011;68362;45.970;12.646;2023-05-10T03:51:59;2.38;;;1.95;;
78960;SDS011;68362;45.970;12.646;2023-05-10T03:53:01;3.38;;;2.30;;
78960;SDS011;68362;45.970;12.646;2023-05-10T03:54:04;3.08;;;1.88;;
78960;SDS011;68362;45.970;12.646;2023-05-10T03:55:06;4.28;;;2.20;;
78960;SDS011;68362;45.970;12.646;2023-05-10T03:56:08;2.47;;;2.25;;
78960;SDS011;68362;45.970;12.646;2023-05-10T03:57:10;3.47;;;2.40;;
78960;SDS011;68362;45.970;12.646;2023-05-10T03:58:12;4.38;;;1.98;;
78960;SDS011;68362;45.970;12.646;2023-05-10T03:59:14;3.95;;;2.17;;
78960;SDS011;68362;45.970;12.646;2023-05-10T04:00:16;3.30;;;2.40;;
78960;SDS011;68362;45.970;12.646;2023-05-10T04:01:19;2.20;;;1.90;;
78960;SDS011;68362;45.970;12.646;2023-05-10T04:02:21;3.20;;;2.08;;
78960;SDS011;68362;45.970;12.646;2023-05-10T04:03:23;2.67;;;1.90;;
78960;SDS011;68362;45.970;12.646;2023-05-10T04:04:27;2.55;;;1.90;;
78960;SDS011;68362;45.970;12.646;2023-05-10T04:05:32;5.25;;;2.40;;
78960;SDS011;68362;45.970;12.646;2023-05-10T04:06:34;4.80;;;2.10;;
78960;SDS011;68362;45.970;12.646;2023-05-10T04:07:36;2.72;;;2.15;;
78960;SDS011;68362;45.970;12.646;2023-05-10T04:08:38;2.33;;;1.95;;
78960;SDS011;68362;45.970;12.646;2023-05-10T04:09:40;3.95;;;2.20;;
78960;SDS011;68362;45.970;12.646;2023-05-10T04:10:43;2.95;;;2.08;;
78960;SDS011;68362;45.970;12.646;2023-05-10T04:11:45;3.53;;;2.20;;
78960;SDS011;68362;45.970;12.646;2023-05-10T04:12:47;3.80;;;2.35;;
78960;SDS011;68362;45.970;12.646;2023-05-10T04:13:49;4.72;;;2.33;;
78960;SDS011;68362;45.970;12.646;2023-05-10T04:14:51;3.35;;;2.47;;
78960;SDS011;68362;45.970;12.646;2023-05-10T04:15:53;3.35;;;2.38;;
78960;SDS011;68362;45.970;12.646;2023-05-10T04:16:55;5.22;;;2.63;;
78960;SDS011;68362;45.970;12.646;2023-05-10T04:17:57;4.43;;;2.13;;
78960;SDS011;68362;45.970;12.646;2023-05-10T04:18:59;3.13;;;2.53;;
78960;SDS011;68362;45.970;12.646;2023-05-10T04:20:01;3.15;;;2.42;;
78960;SDS011;68362;45.970;12.646;2023-05-10T04:21:10;4.50;;;2.53;;
78960;SDS011;68362;45.970;12.646;2023-05-10T04:22:15;4.35;;;2.42;;
78960;SDS011;68362;45.970;12.646;2023-05-10T04:23:18;2.58;;;2.00;;
78960;SDS011;68362;45.970;12.646;2023-05-10T04:24:20;5.13;;;2.63;;
78960;SDS011;68362;45.970;12.646;2023-05-10T04:25:22;3.17;;;2.20;;
78960;SDS011;68362;45.970;12.646;2023-05-10T04:26:23;3.20;;;2.38;;
78960;SDS011;68362;45.970;12.646;2023-05-10T04:27:27;4.80;;;2.67;;
78960;SDS011;68362;45.970;12.646;2023-05-10T04:28:29;4.57;;;2.38;;
78960;SDS011;68362;45.970;12.646;2023-05-10T04:29:31;3.03;;;2.53;;
78960;SDS011;68362;45.970;12.646;2023-05-10T04:30:33;4.78;;;2.35;;
78960;SDS011;68362;45.970;12.646;2023-05-10T04:31:36;4.18;;;2.53;;
78960;SDS011;68362;45.970;12.646;2023-05-10T04:32:37;4.47;;;2.45;;
78960;SDS011;68362;45.970;12.646;2023-05-10T04:33:39;4.35;;;2.78;;
78960;SDS011;68362;45.970;12.646;2023-05-10T04:34:41;5.13;;;2.63;;
78960;SDS011;68362;45.970;12.646;2023-05-10T04:35:44;6.78;;;2.50;;
78960;SDS011;68362;45.970;12.646;2023-05-10T04:36:46;4.07;;;2.58;;
78960;SDS011;68362;45.970;12.646;2023-05-10T04:37:48;4.88;;;2.95;;
78960;SDS011;68362;45.970;12.646;2023-05-10T04:38:50;3.13;;;2.40;;
78960;SDS011;68362;45.970;12.646;2023-05-10T04:39:52;6.57;;;2.40;;
78960;SDS011;68362;45.970;12.646;2023-05-10T04:40:55;3.00;;;2.38;;
78960;SDS011;68362;45.970;12.646;2023-05-10T04:42:05;2.92;;;2.33;;
78960;SDS011;68362;45.970;12.646;2023-05-10T04:43:07;3.20;;;2.75;;
78960;SDS011;68362;45.970;12.646;2023-05-10T04:44:09;5.57;;;2.67;;
78960;SDS011;68362;45.970;12.646;2023-05-10T04:45:11;3.55;;;2.63;;
78960;SDS011;68362;45.970;12.646;2023-05-10T04:46:13;3.80;;;2.30;;
78960;SDS011;68362;45.970;12.646;2023-05-10T04:47:15;3.25;;;2.70;;
78960;SDS011;68362;45.970;12.646;2023-05-10T04:48:18;3.38;;;2.80;;
78960;SDS011;68362;45.970;12.646;2023-05-10T04:49:20;3.45;;;2.55;;
78960;SDS011;68362;45.970;12.646;2023-05-10T04:50:22;3.40;;;2.70;;
78960;SDS011;68362;45.970;12.646;2023-05-10T04:51:24;2.90;;;2.25;;
78960;SDS011;68362;45.970;12.646;2023-05-10T04:52:26;4.65;;;2.75;;
78960;SDS011;68362;45.970;12.646;2023-05-10T04:53:28;3.00;;;2.58;;
78960;SDS011;68362;45.970;12.646;2023-05-10T04:54:30;2.63;;;2.10;;
78960;SDS011;68362;45.970;12.646;2023-05-10T04:55:32;3.33;;;2.78;;
78960;SDS011;68362;45.970;12.646;2023-05-10T04:56:35;6.53;;;3.13;;
78960;SDS011;68362;45.970;12.646;2023-05-10T04:57:37;4.57;;;2.38;;
78960;SDS011;68362;45.970;12.646;2023-05-10T04:58:39;4.05;;;2.60;;
78960;SDS011;68362;45.970;12.646;2023-05-10T04:59:41;5.22;;;2.70;;
78960;SDS011;68362;45.970;12.646;2023-05-10T05:00:44;4.80;;;3.55;;
78960;SDS011;68362;45.970;12.646;2023-05-10T05:01:46;5.60;;;2.78;;
78960;SDS011;68362;45.970;12.646;2023-05-10T05:02:48;3.72;;;2.88;;
78960;SDS011;68362;45.970;12.646;2023-05-10T05:03:51;7.95;;;3.20;;
78960;SDS011;68362;45.970;12.646;2023-05-10T05:04:55;4.07;;;2.72;;
78960;SDS011;68362;45.970;12.646;2023-05-10T05:05:59;4.40;;;3.13;;
78960;SDS011;68362;45.970;12.646;2023-05-10T05:07:01;4.38;;;2.97;;
78960;SDS011;68362;45.970;12.646;2023-05-10T05:08:03;3.60;;;2.80;;
78960;SDS011;68362;45.970;12.646;2023-05-10T05:10:07;3.92;;;2.78;;
78960;SDS011;68362;45.970;12.646;2023-05-10T05:11:10;5.07;;;2.67;;
78960;SDS011;68362;45.970;12.646;2023-05-10T05:12:12;3.38;;;2.80;;
78960;SDS011;68362;45.970;12.646;2023-05-10T05:13:16;4.50;;;2.85;;
78960;SDS011;68362;45.970;12.646;2023-05-10T05:14:18;4.25;;;2.88;;
78960;SDS011;68362;45.970;12.646;2023-05-10T05:15:22;4.28;;;2.38;;
78960;SDS011;68362;45.970;12.646;2023-05-10T05:16:24;3.95;;;2.85;;
78960;SDS011;68362;45.970;12.646;2023-05-10T05:17:27;6.35;;;3.03;;
78960;SDS011;68362;45.970;12.646;2023-05-10T05:18:29;3.75;;;3.00;;
78960;SDS011;68362;45.970;12.646;2023-05-10T05:19:31;3.33;;;2.65;;
78960;SDS011;68362;45.970;12.646;2023-05-10T05:20:33;5.63;;;3.33;;
78960;SDS011;68362;45.970;12.646;2023-05-10T05:21:38;4.25;;;3.10;;
78960;SDS011;68362;45.970;12.646;2023-05-10T05:22:40;4.18;;;3.00;;
78960;SDS011;68362;45.970;12.646;2023-05-10T05:23:42;4.43;;;3.08;;
78960;SDS011;68362;45.970;12.646;2023-05-10T05:24:45;5.05;;;2.78;;
78960;SDS011;68362;45.970;12.646;2023-05-10T05:25:47;3.30;;;2.63;;
78960;SDS011;68362;45.970;12.646;2023-05-10T05:26:49;3.47;;;2.80;;
78960;SDS011;68362;45.970;12.646;2023-05-10T05:27:51;4.93;;;3.13;;
78960;SDS011;68362;45.970;12.646;2023-05-10T05:28:53;5.25;;;3.10;;
78960;SDS011;68362;45.970;12.646;2023-05-10T05:29:56;4.22;;;2.80;;
78960;SDS011;68362;45.970;12.646;2023-05-10T05:30:59;2.97;;;2.53;;
78960;SDS011;68362;45.970;12.646;2023-05-10T05:32:00;7.32;;;3.00;;
78960;SDS011;68362;45.970;12.646;2023-05-10T05:33:03;3.25;;;2.50;;
78960;SDS011;68362;45.970;12.646;2023-05-10T05:34:05;3.05;;;2.70;;
78960;SDS011;68362;45.970;12.646;2023-05-10T05:35:07;3.58;;;2.88;;
78960;SDS011;68362;45.970;12.646;2023-05-10T05:36:10;5.45;;;3.22;;
78960;SDS011;68362;45.970;12.646;2023-05-10T05:37:12;4.75;;;3.25;;
78960;SDS011;68362;45.970;12.646;2023-05-10T05:38:19;3.60;;;3.15;;
78960;SDS011;68362;45.970;12.646;2023-05-10T05:39:20;5.00;;;2.80;;
78960;SDS011;68362;45.970;12.646;2023-05-10T05:40:22;4.80;;;3.17;;
78960;SDS011;68362;45.970;12.646;2023-05-10T05:41:24;3.72;;;2.75;;
78960;SDS011;68362;45.970;12.646;2023-05-10T05:42:27;4.10;;;2.80;;
78960;SDS011;68362;45.970;12.646;2023-05-10T05:43:29;3.97;;;2.67;;
78960;SDS011;68362;45.970;12.646;2023-05-10T05:44:31;5.20;;;3.15;;
78960;SDS011;68362;45.970;12.646;2023-05-10T05:45:33;3.72;;;2.85;;
78960;SDS011;68362;45.970;12.646;2023-05-10T05:46:35;3.47;;;2.83;;
78960;SDS011;68362;45.970;12.646;2023-05-10T05:47:37;3.40;;;2.63;;
78960;SDS011;68362;45.970;12.646;2023-05-10T05:48:39;5.15;;;3.08;;
78960;SDS011;68362;45.970;12.646;2023-05-10T05:49:41;6.05;;;2.67;;
78960;SDS011;68362;45.970;12.646;2023-05-10T05:50:43;6.82;;;3.05;;
78960;SDS011;68362;45.970;12.646;2023-05-10T05:51:45;3.83;;;2.63;;
78960;SDS011;68362;45.970;12.646;2023-05-10T05:52:47;5.65;;;3.38;;
78960;SDS011;68362;45.970;12.646;2023-05-10T05:53:50;5.47;;;3.00;;
78960;SDS011;68362;45.970;12.646;2023-05-10T05:54:52;7.15;;;3.42;;
78960;SDS011;68362;45.970;12.646;2023-05-10T05:55:54;5.10;;;2.67;;
78960;SDS011;68362;45.970;12.646;2023-05-10T05:56:57;4.72;;;2.42;;
78960;SDS011;68362;45.970;12.646;2023-05-10T05:58:02;3.47;;;2.53;;
78960;SDS011;68362;45.970;12.646;2023-05-10T05:59:04;6.45;;;2.83;;
78960;SDS011;68362;45.970;12.646;2023-05-10T06:00:06;4.72;;;3.00;;
78960;SDS011;68362;45.970;12.646;2023-05-10T06:01:09;4.45;;;3.35;;
78960;SDS011;68362;45.970;12.646;2023-05-10T06:02:11;3.17;;;2.33;;
78960;SDS011;68362;45.970;12.646;2023-05-10T06:03:13;3.28;;;2.67;;
78960;SDS011;68362;45.970;12.646;2023-05-10T06:04:15;8.43;;;3.17;;
78960;SDS011;68362;45.970;12.646;2023-05-10T06:05:18;3.28;;;2.85;;
78960;SDS011;68362;45.970;12.646;2023-05-10T06:06:20;6.70;;;3.13;;
78960;SDS011;68362;45.970;12.646;2023-05-10T06:07:22;6.05;;;3.20;;
78960;SDS011;68362;45.970;12.646;2023-05-10T06:08:24;4.55;;;2.72;;
78960;SDS011;68362;45.970;12.646;2023-05-10T06:10:29;3.65;;;2.80;;
78960;SDS011;68362;45.970;12.646;2023-05-10T06:11:32;4.25;;;2.83;;
78960;SDS011;68362;45.970;12.646;2023-05-10T06:12:34;4.10;;;2.72;;
78960;SDS011;68362;45.970;12.646;2023-05-10T06:13:36;2.90;;;2.58;;
78960;SDS011;68362;45.970;12.646;2023-05-10T06:14:39;3.72;;;2.70;;
78960;SDS011;68362;45.970;12.646;2023-05-10T06:15:40;6.97;;;2.45;;
78960;SDS011;68362;45.970;12.646;2023-05-10T06:16:42;4.88;;;2.85;;
78960;SDS011;68362;45.970;12.646;2023-05-10T06:17:44;5.82;;;3.17;;
78960;SDS011;68362;45.970;12.646;2023-05-10T06:18:49;5.28;;;2.70;;
78960;SDS011;68362;45.970;12.646;2023-05-10T06:19:51;4.43;;;2.90;;
78960;SDS011;68362;45.970;12.646;2023-05-10T06:20:52;4.38;;;2.95;;
78960;SDS011;68362;45.970;12.646;2023-05-10T06:21:54;4.32;;;3.22;;
78960;SDS011;68362;45.970;12.646;2023-05-10T06:22:57;5.00;;;3.03;;
78960;SDS011;68362;45.970;12.646;2023-05-10T06:23:59;4.95;;;2.88;;
78960;SDS011;68362;45.970;12.646;2023-05-10T06:25:01;3.70;;;3.22;;
78960;SDS011;68362;45.970;12.646;2023-05-10T06:26:04;7.13;;;3.47;;
78960;SDS011;68362;45.970;12.646;2023-05-10T06:27:06;4.50;;;3.15;;
78960;SDS011;68362;45.970;12.646;2023-05-10T06:28:08;5.35;;;2.90;;
78960;SDS011;68362;45.970;12.646;2023-05-10T06:29:11;4.20;;;3.00;;
78960;SDS011;68362;45.970;12.646;2023-05-10T06:30:13;3.97;;;3.05;;
78960;SDS011;68362;45.970;12.646;2023-05-10T06:31:17;6.70;;;3.03;;
78960;SDS011;68362;45.970;12.646;2023-05-10T06:32:19;4.82;;;2.97;;
78960;SDS011;68362;45.970;12.646;2023-05-10T06:33:21;4.63;;;2.88;;
78960;SDS011;68362;45.970;12.646;2023-05-10T06:34:23;7.70;;;3.00;;
78960;SDS011;68362;45.970;12.646;2023-05-10T06:35:26;5.50;;;2.95;;
78960;SDS011;68362;45.970;12.646;2023-05-10T06:36:28;6.07;;;3.55;;
78960;SDS011;68362;45.970;12.646;2023-05-10T06:37:30;3.78;;;2.70;;
78960;SDS011;68362;45.970;12.646;2023-05-10T06:38:33;5.55;;;3.42;;